createdAt,value
2018-01-10T00:01:21.079Z,7.80
2018-01-10T00:03:49.100Z,7.03
2018-01-10T00:06:16.653Z,7.03
2018-01-10T00:08:44.187Z,7.53
2018-01-10T00:11:11.744Z,7.80
2018-01-10T00:13:39.280Z,7.30
2018-01-10T00:16:06.809Z,6.60
2018-01-10T00:18:34.367Z,7.20
2018-01-10T00:21:01.955Z,6.63
2018-01-10T00:23:29.504Z,7.55
2018-01-10T00:25:57.384Z,7.17
2018-01-10T00:28:26.476Z,7.70
2018-01-10T00:30:54.003Z,7.93
2018-01-10T00:33:21.559Z,7.87
2018-01-10T00:35:49.087Z,7.27
2018-01-10T00:38:16.620Z,8.03
2018-01-10T00:40:44.181Z,8.60
2018-01-10T00:43:11.718Z,9.37
2018-01-10T00:45:39.247Z,8.40
2018-01-10T00:48:07.392Z,8.70
2018-01-10T00:50:34.924Z,8.60
2018-01-10T00:53:02.446Z,8.27
2018-01-10T00:55:30.010Z,8.33
2018-01-10T00:57:57.557Z,8.03
2018-01-10T01:00:25.089Z,7.70
2018-01-10T01:02:52.649Z,8.13
2018-01-10T01:05:20.185Z,8.77
2018-01-10T01:07:48.482Z,8.77
2018-01-10T01:10:16.744Z,9.18
2018-01-10T01:12:44.271Z,8.93
2018-01-10T01:15:11.807Z,8.30
2018-01-10T01:17:39.359Z,9.00
2018-01-10T01:20:06.895Z,7.07
2018-01-10T01:22:34.434Z,9.45
2018-01-10T01:25:02.768Z,8.00
2018-01-10T01:27:30.303Z,9.00
2018-01-10T01:29:58.547Z,8.87
2018-01-10T01:32:27.087Z,8.13
2018-01-10T01:34:54.615Z,8.73
2018-01-10T01:37:22.156Z,8.70
2018-01-10T01:39:49.712Z,8.20
2018-01-10T01:42:18.012Z,8.87
2018-01-10T01:44:46.312Z,8.17
2018-01-10T01:47:25.325Z,8.43
2018-01-10T01:54:47.920Z,7.63
2018-01-10T01:57:15.588Z,8.80
2018-01-10T01:59:43.128Z,7.90
2018-01-10T02:02:10.681Z,9.50
2018-01-10T02:04:38.216Z,8.90
2018-01-10T02:07:05.742Z,8.30
2018-01-10T02:09:33.303Z,8.20
2018-01-10T02:12:00.880Z,8.43
2018-01-10T02:14:28.420Z,8.25
2018-01-10T02:16:56.580Z,9.10
2018-01-10T02:19:24.108Z,8.40
2018-01-10T02:21:51.638Z,8.03
2018-01-10T02:24:19.191Z,8.50
2018-01-10T02:26:46.723Z,8.30
2018-01-10T02:29:16.272Z,8.85
2018-01-10T02:31:45.119Z,8.50
2018-01-10T02:34:13.571Z,8.70
2018-01-10T02:36:41.104Z,9.23
2018-01-10T02:39:09.221Z,7.53
2018-01-10T02:41:36.939Z,8.70
2018-01-10T02:44:04.479Z,9.68
2018-01-10T02:46:32.031Z,9.48
2018-01-10T02:48:59.560Z,9.30
2018-01-10T02:51:27.099Z,9.30
2018-01-10T02:53:54.653Z,8.23
2018-01-10T02:56:22.192Z,10.75
2018-01-10T02:58:49.723Z,12.10
2018-01-10T03:01:17.735Z,9.53
2018-01-10T03:03:45.267Z,8.20
2018-01-10T03:06:13.714Z,7.40
2018-01-10T03:08:41.296Z,7.53
2018-01-10T03:11:08.824Z,8.10
2018-01-10T03:13:36.360Z,8.10
2018-01-10T03:16:03.915Z,7.70
2018-01-10T03:18:31.459Z,8.83
2018-01-10T03:20:58.999Z,9.60
2018-01-10T03:23:27.144Z,7.47
2018-01-10T03:25:54.673Z,8.10
2018-01-10T03:28:22.203Z,8.67
2018-01-10T03:30:49.764Z,8.50
2018-01-10T03:33:17.843Z,8.47
2018-01-10T03:35:45.375Z,8.73
2018-01-10T03:38:13.851Z,8.37
2018-01-10T03:40:41.379Z,9.43
2018-01-10T03:43:08.903Z,8.90
2018-01-10T03:45:36.675Z,9.00
2018-01-10T03:48:04.215Z,8.57
2018-01-10T03:50:32.515Z,8.70
2018-01-10T03:53:00.075Z,8.83
2018-01-10T03:55:27.619Z,8.63
2018-01-10T03:57:55.151Z,9.07
2018-01-10T04:00:22.712Z,9.33
2018-01-10T04:02:50.255Z,9.83
2018-01-10T04:05:17.790Z,8.60
2018-01-10T04:07:45.682Z,8.50
2018-01-10T04:10:15.459Z,10.70
2018-01-10T04:12:42.997Z,8.53
2018-01-10T04:15:10.568Z,10.50
2018-01-10T04:17:38.099Z,9.60
2018-01-10T04:20:05.631Z,9.70
2018-01-10T04:22:33.187Z,9.80
2018-01-10T04:25:01.483Z,9.47
2018-01-10T04:27:29.014Z,11.67
2018-01-10T04:29:56.838Z,11.43
2018-01-10T04:32:24.377Z,11.90
2018-01-10T04:34:52.347Z,10.80
2018-01-10T04:37:19.915Z,10.55
2018-01-10T04:39:47.458Z,11.07
2018-01-10T04:42:17.287Z,9.82
2018-01-10T04:44:44.872Z,10.30
2018-01-10T04:47:12.407Z,9.85
2018-01-10T04:49:40.711Z,10.80
2018-01-10T04:52:08.755Z,10.47
2018-01-10T04:54:36.287Z,9.50
2018-01-10T04:57:03.823Z,10.60
2018-01-10T04:59:31.379Z,9.53
2018-01-10T05:01:58.914Z,10.40
2018-01-10T05:04:26.450Z,11.27
2018-01-10T05:06:54.010Z,11.03
2018-01-10T05:09:21.552Z,10.30
2018-01-10T05:11:49.087Z,9.50
2018-01-10T05:14:17.218Z,10.37
2018-01-10T05:16:44.757Z,9.67
2018-01-10T05:19:12.291Z,8.90
2018-01-10T05:21:40.614Z,8.67
2018-01-10T05:24:08.917Z,10.00
2018-01-10T05:26:36.455Z,9.63
2018-01-10T05:29:04.015Z,9.90
2018-01-10T05:31:31.554Z,10.07
2018-01-10T05:33:59.134Z,9.10
2018-01-10T05:39:19.815Z,9.82
2018-01-10T05:41:47.380Z,9.10
2018-01-10T05:44:15.604Z,10.45
2018-01-10T05:46:43.138Z,10.80
2018-01-10T05:49:10.694Z,11.50
2018-01-10T05:51:38.224Z,9.60
2018-01-10T05:54:05.763Z,10.93
2018-01-10T05:56:34.320Z,10.40
2018-01-10T05:59:01.855Z,10.37
2018-01-10T06:01:29.406Z,10.40
2018-01-10T06:03:56.970Z,10.30
2018-01-10T06:06:24.511Z,10.53
2018-01-10T06:08:52.064Z,11.00
2018-01-10T06:11:19.636Z,10.60
2018-01-10T06:13:47.173Z,10.40
2018-01-10T06:16:15.503Z,10.17
2018-01-10T06:18:43.688Z,11.63
2018-01-10T06:21:11.295Z,11.77
2018-01-10T06:23:38.867Z,11.30
2018-01-10T06:26:06.443Z,10.60
2018-01-10T06:28:33.984Z,10.27
2018-01-10T06:31:01.698Z,9.93
2018-01-10T06:33:29.293Z,11.00
2018-01-10T06:35:56.979Z,10.30
2018-01-10T06:38:25.348Z,10.85
2018-01-10T06:40:53.267Z,13.20
2018-01-10T06:43:20.991Z,12.47
2018-01-10T06:45:48.596Z,13.18
2018-01-10T06:48:16.637Z,12.35
2018-01-10T06:50:44.167Z,11.80
2018-01-10T06:53:12.938Z,11.70
2018-01-10T06:55:40.564Z,11.10
2018-01-10T06:58:08.101Z,13.30
2018-01-10T07:00:35.648Z,14.05
2018-01-10T07:03:03.760Z,12.40
2018-01-10T07:05:31.300Z,12.80
2018-01-10T07:07:58.860Z,14.20
2018-01-10T07:10:26.493Z,13.77
2018-01-10T07:12:54.035Z,11.87
2018-01-10T07:15:22.356Z,14.25
2018-01-10T07:17:49.928Z,12.57
2018-01-10T07:20:17.506Z,14.48
2018-01-10T07:22:45.108Z,12.57
2018-01-10T07:25:15.152Z,13.07
2018-01-10T07:27:42.700Z,12.67
2018-01-10T07:30:10.264Z,14.53
2018-01-10T07:32:37.831Z,65.97
2018-01-10T07:35:05.496Z,43.45
2018-01-10T07:37:33.048Z,41.88
2018-01-10T07:40:00.663Z,30.07
2018-01-10T07:42:28.279Z,27.53
2018-01-10T07:44:55.864Z,22.07
2018-01-10T07:47:23.664Z,15.77
2018-01-10T07:49:51.218Z,16.23
2018-01-10T07:52:20.384Z,14.33
2018-01-10T07:54:48.648Z,12.40
2018-01-10T07:57:16.431Z,12.43
2018-01-10T07:59:44.767Z,11.40
2018-01-10T08:02:12.368Z,11.87
2018-01-10T08:04:39.936Z,10.90
2018-01-10T08:07:07.653Z,12.17
2018-01-10T08:09:35.839Z,10.07
2018-01-10T08:12:03.396Z,10.52
2018-01-10T08:14:30.952Z,10.47
2018-01-10T08:16:58.546Z,11.17
2018-01-10T08:19:26.843Z,9.20
2018-01-10T08:21:54.417Z,8.97
2018-01-10T08:24:22.079Z,10.87
2018-01-10T08:26:50.387Z,11.20
2018-01-10T08:29:17.932Z,10.80
2018-01-10T08:31:45.567Z,10.82
2018-01-10T08:34:15.488Z,9.63
2018-01-10T08:36:43.023Z,11.00
2018-01-10T08:39:10.813Z,11.90
2018-01-10T08:41:38.974Z,11.03
2018-01-10T08:44:06.512Z,12.07
2018-01-10T08:46:34.318Z,12.07
2018-01-10T08:49:03.524Z,11.77
2018-01-10T08:51:31.099Z,11.55
2018-01-10T08:53:58.748Z,12.07
2018-01-10T08:56:27.289Z,11.57
2018-01-10T08:58:54.842Z,11.13
2018-01-10T09:01:23.275Z,14.82
2018-01-10T09:03:51.108Z,12.87
2018-01-10T09:06:18.660Z,11.07
2018-01-10T09:08:46.999Z,11.70
2018-01-10T09:11:16.295Z,12.15
2018-01-10T09:13:43.963Z,12.00
2018-01-10T09:16:12.007Z,11.47
2018-01-10T09:18:39.578Z,12.90
2018-01-10T09:21:07.168Z,15.60
2018-01-10T09:23:34.743Z,14.80
2018-01-10T09:26:02.304Z,14.03
2018-01-10T09:28:29.916Z,15.37
2018-01-10T09:30:57.488Z,16.63
2018-01-10T09:33:25.028Z,17.07
2018-01-10T09:35:53.335Z,17.43
2018-01-10T09:38:21.100Z,17.23
2018-01-10T09:40:48.640Z,16.87
2018-01-10T09:43:18.024Z,15.90
2018-01-10T09:45:45.597Z,17.25
2018-01-10T09:48:25.040Z,16.58
2018-01-10T09:54:44.243Z,17.20
2018-01-10T09:57:11.793Z,16.43
2018-01-10T09:59:39.331Z,17.30
2018-01-10T10:02:06.891Z,16.37
2018-01-10T10:04:34.444Z,17.13
2018-01-10T10:07:01.992Z,17.80
2018-01-10T10:09:30.326Z,16.90
2018-01-10T10:11:57.867Z,18.20
2018-01-10T10:14:25.408Z,18.93
2018-01-10T10:16:53.540Z,18.70
2018-01-10T10:19:21.204Z,17.30
2018-01-10T10:21:48.748Z,18.97
2018-01-10T10:24:16.563Z,17.63
2018-01-10T10:26:44.123Z,19.50
2018-01-10T10:29:11.666Z,19.63
2018-01-10T10:31:39.963Z,20.80
2018-01-10T10:34:07.503Z,20.00
2018-01-10T10:36:35.044Z,19.27
2018-01-10T10:39:03.612Z,19.43
2018-01-10T10:41:31.176Z,19.12
2018-01-10T10:43:59.182Z,21.13
2018-01-10T10:46:26.756Z,19.23
2018-01-10T10:48:54.295Z,22.00
2018-01-10T10:51:22.601Z,21.98
2018-01-10T10:53:50.178Z,20.57
2018-01-10T10:56:17.721Z,20.73
2018-01-10T10:58:45.251Z,22.50
2018-01-10T11:01:15.122Z,21.47
2018-01-10T11:03:42.655Z,21.37
2018-01-10T11:06:10.183Z,22.77
2018-01-10T11:08:38.511Z,22.43
2018-01-10T11:11:06.052Z,21.70
2018-01-10T11:13:33.590Z,23.02
2018-01-10T11:16:01.927Z,22.20
2018-01-10T11:18:29.471Z,21.17
2018-01-10T11:20:57.231Z,21.00
2018-01-10T11:23:25.314Z,22.15
2018-01-10T11:25:52.854Z,20.13
2018-01-10T11:28:27.219Z,22.10
2018-01-10T11:30:54.789Z,22.83
2018-01-10T11:33:23.105Z,21.98
2018-01-10T11:35:50.694Z,22.00
2018-01-10T11:38:18.328Z,23.77
2018-01-10T11:40:45.868Z,21.20
2018-01-10T11:43:24.714Z,20.48
2018-01-10T11:50:40.240Z,22.27
2018-01-10T11:53:07.787Z,23.00
2018-01-10T11:55:35.322Z,23.43
2018-01-10T11:58:03.179Z,22.43
2018-01-10T12:00:30.715Z,23.13
2018-01-10T12:02:58.247Z,24.57
2018-01-10T12:05:27.316Z,23.40
2018-01-10T12:07:54.842Z,24.00
2018-01-10T12:10:22.412Z,21.73
2018-01-10T12:12:51.123Z,23.10
2018-01-10T12:15:18.662Z,22.58
2018-01-10T12:17:46.654Z,24.10
2018-01-10T12:20:16.435Z,22.67
2018-01-10T12:22:44.421Z,23.10
2018-01-10T12:25:11.960Z,23.87
2018-01-10T12:27:40.343Z,25.17
2018-01-10T12:30:07.884Z,23.03
2018-01-10T12:32:35.424Z,23.37
2018-01-10T12:35:02.992Z,24.03
2018-01-10T12:37:30.528Z,24.10
2018-01-10T12:39:58.063Z,23.03
2018-01-10T12:42:25.631Z,25.07
2018-01-10T12:44:53.176Z,24.70
2018-01-10T12:47:20.725Z,24.27
2018-01-10T12:49:49.105Z,25.67
2018-01-10T12:52:16.984Z,24.67
2018-01-10T12:54:44.532Z,24.53
2018-01-10T12:57:12.100Z,25.03
2018-01-10T12:59:40.404Z,23.87
2018-01-10T13:02:07.943Z,25.87
2018-01-10T13:04:35.533Z,25.13
2018-01-10T13:07:03.076Z,25.07
2018-01-10T13:09:30.607Z,23.80
2018-01-10T13:11:59.457Z,24.50
2018-01-10T13:14:27.020Z,25.30
2018-01-10T13:16:54.555Z,24.60
2018-01-10T13:19:22.128Z,23.35
2018-01-10T13:21:49.665Z,23.43
2018-01-10T13:24:17.199Z,22.53
2018-01-10T13:26:45.552Z,22.13
2018-01-10T13:29:14.622Z,22.37
2018-01-10T13:31:42.135Z,22.23
2018-01-10T13:34:11.384Z,21.50
2018-01-10T13:36:38.923Z,20.80
2018-01-10T13:39:06.455Z,22.10
2018-01-10T13:41:34.011Z,21.33
2018-01-10T13:44:02.313Z,20.58
2018-01-10T13:46:29.857Z,21.63
2018-01-10T13:48:57.419Z,22.95
2018-01-10T13:51:24.955Z,23.23
2018-01-10T13:53:52.823Z,22.87
2018-01-10T13:56:20.663Z,24.87
2018-01-10T13:58:48.200Z,24.70
2018-01-10T14:01:16.965Z,24.33
2018-01-10T14:03:44.539Z,25.80
2018-01-10T14:06:12.108Z,27.77
2018-01-10T14:08:39.655Z,28.73
2018-01-10T14:11:07.229Z,28.67
2018-01-10T14:13:34.777Z,28.73
2018-01-10T14:16:02.323Z,27.47
2018-01-10T14:18:30.087Z,28.30
2018-01-10T14:20:57.628Z,28.27
2018-01-10T14:23:25.956Z,28.60
2018-01-10T14:25:53.543Z,27.83
2018-01-10T14:28:21.243Z,29.07
2018-01-10T14:30:49.572Z,29.73
2018-01-10T14:33:17.131Z,28.90
2018-01-10T14:35:44.671Z,28.83
2018-01-10T14:38:12.212Z,29.13
2018-01-10T14:40:39.967Z,26.83
2018-01-10T14:43:07.505Z,28.10
2018-01-10T14:45:36.049Z,27.30
2018-01-10T14:48:03.612Z,28.17
2018-01-10T14:50:31.152Z,27.93
2018-01-10T14:52:58.683Z,29.67
2018-01-10T14:55:26.900Z,27.40
2018-01-10T14:57:54.447Z,28.67
2018-01-10T15:00:21.984Z,29.60
2018-01-10T15:02:49.596Z,29.83
2018-01-10T15:05:17.127Z,28.77
2018-01-10T15:07:44.687Z,30.13
2018-01-10T15:10:12.271Z,28.93
2018-01-10T15:12:39.807Z,30.77
2018-01-10T15:15:07.351Z,30.80
2018-01-10T15:17:34.917Z,29.73
2018-01-10T15:20:02.452Z,32.90
2018-01-10T15:22:30.755Z,32.20
2018-01-10T15:24:58.529Z,34.43
2018-01-10T15:27:26.828Z,32.57
2018-01-10T15:29:54.367Z,33.50
2018-01-10T15:32:21.940Z,35.57
2018-01-10T15:34:49.519Z,36.28
2018-01-10T15:37:17.064Z,37.00
2018-01-10T15:39:44.623Z,36.53
2018-01-10T15:42:12.194Z,36.60
2018-01-10T15:44:39.736Z,36.30
2018-01-10T15:47:07.823Z,37.70
2018-01-10T15:49:35.440Z,39.27
2018-01-10T15:52:02.999Z,38.33
2018-01-10T15:54:30.570Z,39.88
2018-01-10T15:56:58.721Z,40.67
2018-01-10T15:59:26.961Z,39.93
2018-01-10T16:09:36.080Z,41.70
2018-01-10T16:12:03.983Z,43.90
2018-01-10T16:14:32.448Z,46.27
2018-01-10T16:17:00.023Z,48.83
2018-01-10T16:19:27.594Z,50.70
2018-01-10T16:21:55.156Z,56.60
2018-01-10T16:24:23.801Z,53.20
2018-01-10T16:26:51.553Z,50.27
2018-01-10T16:29:27.392Z,50.63
2018-01-10T16:31:55.100Z,48.50
2018-01-10T16:34:22.844Z,51.67
2018-01-10T16:36:50.638Z,53.03
2018-01-10T16:39:19.021Z,52.73
2018-01-10T16:41:46.571Z,53.27
2018-01-10T16:44:15.644Z,53.40
2018-01-10T16:46:43.214Z,59.27
2018-01-10T16:49:11.577Z,62.23
2018-01-10T16:51:39.160Z,60.10
2018-01-10T16:54:06.696Z,58.43
2018-01-10T16:56:35.008Z,57.27
2018-01-10T16:59:03.403Z,57.13
2018-01-10T17:01:30.944Z,69.15
2018-01-10T17:03:58.508Z,63.47
2018-01-10T17:06:26.696Z,68.10
2018-01-10T17:08:54.291Z,68.10
2018-01-10T17:11:21.841Z,64.37
2018-01-10T17:13:49.419Z,60.57
2018-01-10T17:16:17.748Z,59.27
2018-01-10T17:18:45.295Z,56.53
2018-01-10T17:21:13.867Z,52.93
2018-01-10T17:23:44.112Z,58.90
2018-01-10T17:26:11.680Z,59.40
2018-01-10T17:28:41.228Z,59.53
2018-01-10T17:31:12.611Z,57.77
2018-01-10T17:33:41.894Z,55.00
2018-01-10T17:36:09.540Z,53.13
2018-01-10T17:38:37.116Z,57.73
2018-01-10T17:41:04.680Z,57.17
2018-01-10T17:43:33.932Z,56.77
2018-01-10T17:46:03.726Z,54.50
2018-01-10T17:48:31.311Z,57.37
2018-01-10T17:51:03.975Z,60.07
2018-01-10T17:53:31.536Z,56.57
2018-01-10T17:56:00.080Z,55.70
2018-01-10T17:58:27.663Z,61.28
2018-01-10T18:00:55.277Z,50.37
2018-01-10T18:03:22.828Z,61.33
2018-01-10T18:05:50.418Z,56.60
2018-01-10T18:08:18.080Z,55.33
2018-01-10T18:10:45.636Z,55.67
2018-01-10T18:13:24.689Z,58.70
2018-01-10T18:20:24.192Z,65.20
2018-01-10T18:22:52.612Z,64.17
2018-01-10T18:25:20.206Z,60.25
2018-01-10T18:27:47.785Z,67.20
2018-01-10T18:30:17.056Z,56.60
2018-01-10T18:35:41.315Z,55.30
2018-01-10T18:38:08.903Z,53.70
2018-01-10T18:40:37.711Z,47.70
2018-01-10T18:43:05.277Z,52.87
2018-01-10T18:45:32.850Z,54.42
2018-01-10T18:48:04.956Z,53.23
2018-01-10T18:50:32.718Z,53.92
2018-01-10T18:53:00.736Z,51.23
2018-01-10T18:55:28.490Z,54.20
2018-01-10T18:57:57.133Z,52.63
2018-01-10T19:00:24.848Z,53.13
2018-01-10T19:02:52.460Z,54.63
2018-01-10T19:05:19.999Z,48.42
2018-01-10T19:07:48.403Z,51.10
2018-01-10T19:10:16.631Z,51.77
2018-01-10T19:12:44.196Z,41.03
2018-01-10T19:15:11.991Z,42.13
2018-01-10T19:17:39.550Z,41.80
2018-01-10T19:20:07.095Z,44.03
2018-01-10T19:22:50.215Z,47.08
2018-01-10T19:25:21.513Z,46.93
2018-01-10T19:27:49.241Z,50.70
2018-01-10T19:30:16.889Z,45.10
2018-01-10T19:32:44.506Z,44.70
2018-01-10T19:35:12.390Z,42.93
2018-01-10T19:37:39.981Z,41.00
2018-01-10T19:40:08.299Z,55.42
2018-01-10T19:42:36.652Z,47.83
2018-01-10T19:45:04.199Z,51.00
2018-01-10T19:47:32.528Z,50.00
2018-01-10T19:50:00.161Z,52.20
2018-01-10T19:52:27.715Z,40.50
2018-01-10T19:54:55.288Z,39.40
2018-01-10T19:57:23.324Z,43.07
2018-01-10T19:59:51.828Z,54.33
2018-01-10T20:02:19.469Z,45.87
2018-01-10T20:04:50.556Z,57.57
2018-01-10T20:07:18.207Z,52.90
2018-01-10T20:09:46.887Z,43.97
2018-01-10T20:12:32.828Z,45.49
2018-01-10T20:17:31.495Z,46.73
2018-01-10T20:19:59.194Z,41.50
2018-01-10T20:22:26.901Z,47.63
2018-01-10T20:24:54.507Z,47.20
2018-01-10T20:27:22.287Z,42.70
2018-01-10T20:29:49.903Z,46.03
2018-01-10T20:32:17.608Z,54.53
2018-01-10T20:34:45.387Z,49.57
2018-01-10T20:37:25.960Z,43.80
2018-01-10T20:42:50.255Z,40.97
2018-01-10T20:45:17.877Z,47.10
2018-01-10T20:47:46.705Z,47.13
2018-01-10T20:50:26.023Z,46.47
2018-01-10T20:58:38.684Z,39.37
2018-01-10T21:01:06.253Z,38.10
2018-01-10T21:03:34.051Z,38.70
2018-01-10T21:06:02.318Z,40.95
2018-01-10T21:08:30.936Z,45.27
2018-01-10T21:10:58.504Z,45.27
2018-01-10T21:13:26.181Z,48.33
2018-01-10T21:15:53.769Z,51.73
2018-01-10T21:18:21.362Z,47.50
2018-01-10T21:20:48.988Z,49.00
2018-01-10T21:23:16.916Z,57.67
2018-01-10T21:25:44.523Z,51.80
2018-01-10T21:28:12.382Z,49.20
2018-01-10T21:30:40.047Z,50.83
2018-01-10T21:33:08.514Z,42.40
2018-01-10T21:35:36.230Z,47.70
2018-01-10T21:38:03.937Z,44.95
2018-01-10T21:40:31.735Z,37.47
2018-01-10T21:42:59.479Z,36.17
2018-01-10T21:45:27.149Z,37.23
2018-01-10T21:47:54.955Z,41.00
2018-01-10T21:50:22.725Z,39.70
2018-01-10T21:52:50.442Z,33.90
2018-01-10T21:55:18.820Z,34.53
2018-01-10T21:57:46.460Z,38.80
2018-01-10T22:00:16.032Z,35.30
2018-01-10T22:02:43.691Z,36.45
2018-01-10T22:05:11.334Z,37.00
2018-01-10T22:07:39.541Z,39.87
2018-01-10T22:10:07.401Z,35.03
2018-01-10T22:12:35.404Z,36.97
2018-01-10T22:15:02.982Z,38.23
2018-01-10T22:17:30.833Z,38.03
2018-01-10T22:19:58.500Z,39.30
2018-01-10T22:22:28.131Z,36.77
2018-01-10T22:24:58.389Z,35.10
2018-01-10T22:27:26.027Z,34.50
2018-01-10T22:29:54.463Z,36.43
2018-01-10T22:32:22.049Z,37.77
2018-01-10T22:34:51.089Z,38.97
2018-01-10T22:37:19.245Z,35.92
2018-01-10T22:39:46.969Z,36.63
2018-01-10T22:42:25.867Z,36.93
2018-01-10T22:48:52.658Z,33.80
2018-01-10T22:51:20.497Z,37.88
2018-01-10T22:53:48.829Z,33.10
2018-01-10T22:56:17.485Z,35.60
2018-01-10T22:58:45.185Z,33.47
2018-01-10T23:01:14.431Z,32.50
2018-01-10T23:03:42.130Z,33.80
2018-01-10T23:06:10.597Z,33.60
2018-01-10T23:08:39.340Z,36.67
2018-01-10T23:11:06.972Z,35.30
2018-01-10T23:13:34.519Z,35.45
2018-01-10T23:16:02.132Z,35.93
2018-01-10T23:18:29.912Z,32.95
2018-01-10T23:20:57.472Z,34.03
2018-01-10T23:23:25.039Z,35.03
2018-01-10T23:25:52.620Z,33.78
2018-01-10T23:28:20.951Z,35.13
2018-01-10T23:30:48.496Z,35.42
2018-01-10T23:33:16.552Z,34.70
2018-01-10T23:35:44.083Z,32.93
2018-01-10T23:38:12.394Z,32.53
2018-01-10T23:40:40.695Z,32.17
2018-01-10T23:43:08.244Z,31.00
2018-01-10T23:45:35.783Z,31.20
2018-01-10T23:48:03.356Z,30.37
2018-01-10T23:50:30.920Z,29.23
2018-01-10T23:52:58.471Z,31.50
2018-01-10T23:55:26.040Z,29.27
2018-01-10T23:57:54.362Z,31.13
